createdAt,value
2022-08-28T00:05:01.877Z,8.70
2022-08-28T00:10:15.069Z,9.20
2022-08-28T00:15:24.943Z,9.50
2022-08-28T00:20:33.884Z,8.90
2022-08-28T00:25:41.000Z,10.50
2022-08-28T00:30:50.865Z,7.30
2022-08-28T00:35:58.921Z,9.40
2022-08-28T00:41:06.090Z,10.30
2022-08-28T00:46:17.012Z,10.20
2022-08-28T00:51:41.882Z,10.60
2022-08-28T00:56:49.820Z,11.30
2022-08-28T01:01:59.531Z,10.20
2022-08-28T01:07:10.049Z,10.30
2022-08-28T01:12:19.617Z,10.80
2022-08-28T01:17:29.687Z,10.60
2022-08-28T01:22:41.704Z,10.20
2022-08-28T01:27:48.740Z,10.70
2022-08-28T01:32:57.173Z,10.50
2022-08-28T01:38:05.365Z,10.70
2022-08-28T01:43:15.024Z,10.80
2022-08-28T01:48:23.902Z,10.80
2022-08-28T01:53:33.109Z,11.20
2022-08-28T01:58:42.426Z,10.70
2022-08-28T02:03:53.157Z,11.40
2022-08-28T02:09:01.010Z,10.90
2022-08-28T02:14:07.974Z,11.80
2022-08-28T02:19:15.211Z,10.80
2022-08-28T02:24:22.728Z,11.80
2022-08-28T02:29:30.207Z,11.50
2022-08-28T02:34:37.646Z,11.00
2022-08-28T02:39:44.960Z,11.80
2022-08-28T02:44:51.960Z,11.80
2022-08-28T02:49:59.178Z,10.90
2022-08-28T02:55:07.894Z,12.50
2022-08-28T03:00:20.269Z,11.90
2022-08-28T03:05:27.757Z,11.90
2022-08-28T03:10:35.576Z,11.70
2022-08-28T03:15:43.753Z,11.50
2022-08-28T03:20:52.847Z,11.60
2022-08-28T03:26:02.406Z,11.70
2022-08-28T03:31:11.402Z,12.10
2022-08-28T03:36:22.837Z,11.30
2022-08-28T03:41:32.322Z,11.20
2022-08-28T03:46:40.123Z,11.30
2022-08-28T03:51:47.025Z,11.40
2022-08-28T03:56:54.526Z,12.10
2022-08-28T04:02:01.434Z,12.10
2022-08-28T04:07:08.847Z,11.90
2022-08-28T04:12:16.256Z,11.90
2022-08-28T04:17:23.376Z,11.50
2022-08-28T04:22:31.055Z,11.50
2022-08-28T04:27:38.514Z,11.90
2022-08-28T04:32:47.945Z,12.40
2022-08-28T04:37:58.749Z,12.20
2022-08-28T04:43:06.138Z,13.10
2022-08-28T04:48:14.810Z,13.00
2022-08-28T04:53:22.454Z,13.30
2022-08-28T04:58:30.718Z,12.80
2022-08-28T05:03:38.133Z,13.20
2022-08-28T05:08:45.606Z,13.00
2022-08-28T05:13:54.491Z,13.00
2022-08-28T05:19:03.660Z,14.40
2022-08-28T05:24:10.962Z,12.20
2022-08-28T05:29:18.491Z,13.80
2022-08-28T05:34:25.460Z,15.60
2022-08-28T05:39:32.554Z,13.50
2022-08-28T05:44:39.926Z,15.50
2022-08-28T05:49:47.119Z,13.10
2022-08-28T05:54:54.290Z,11.80
2022-08-28T06:00:02.387Z,11.30
2022-08-28T06:05:13.048Z,15.00
2022-08-28T06:10:20.979Z,14.00
2022-08-28T06:15:28.339Z,12.40
2022-08-28T06:20:41.503Z,12.90
2022-08-28T06:25:51.573Z,13.90
2022-08-28T06:31:22.935Z,14.00
2022-08-28T06:36:27.528Z,15.10
2022-08-28T06:41:36.870Z,13.90
2022-08-28T06:46:44.411Z,15.20
2022-08-28T06:51:51.840Z,13.70
2022-08-28T06:56:58.908Z,13.20
2022-08-28T07:02:09.032Z,13.20
2022-08-28T07:07:31.512Z,13.00
2022-08-28T07:12:40.474Z,13.40
2022-08-28T07:17:47.330Z,13.30
2022-08-28T07:22:59.481Z,11.90
2022-08-28T07:28:07.117Z,13.20
2022-08-28T07:33:14.635Z,11.50
2022-08-28T07:38:22.125Z,13.50
2022-08-28T07:43:47.038Z,12.20
2022-08-28T07:48:54.448Z,12.90
2022-08-28T07:54:02.026Z,11.20
2022-08-28T07:59:10.662Z,10.10
2022-08-28T08:04:20.075Z,10.30
2022-08-28T08:09:28.637Z,11.80
2022-08-28T08:14:36.416Z,11.90
2022-08-28T08:19:43.721Z,10.70
2022-08-28T08:24:50.711Z,10.00
2022-08-28T08:29:57.656Z,10.30
2022-08-28T08:35:05.140Z,10.10
2022-08-28T08:40:19.458Z,11.10
2022-08-28T08:45:29.623Z,10.90
2022-08-28T08:50:38.873Z,9.80
2022-08-28T08:55:50.236Z,8.90
2022-08-28T09:01:03.758Z,9.90
2022-08-28T09:06:22.696Z,9.10
2022-08-28T09:11:45.910Z,10.80
2022-08-28T09:16:59.462Z,9.80
2022-08-28T09:22:06.760Z,10.60
2022-08-28T09:27:25.745Z,10.20
2022-08-28T09:32:37.223Z,9.00
2022-08-28T09:37:45.180Z,10.30
2022-08-28T09:43:26.178Z,9.90
2022-08-28T09:48:39.169Z,9.20
2022-08-28T09:54:02.955Z,9.70
2022-08-28T09:59:13.537Z,10.10
2022-08-28T10:04:33.495Z,10.80
2022-08-28T10:09:49.558Z,10.30
2022-08-28T10:15:05.560Z,9.70
2022-08-28T10:25:36.999Z,8.60
2022-08-28T10:31:01.472Z,8.70
2022-08-28T10:36:28.794Z,8.70
2022-08-28T10:41:47.300Z,9.50
2022-08-28T10:46:58.543Z,9.50
2022-08-28T10:52:10.093Z,9.40
2022-08-28T10:57:39.482Z,9.60
2022-08-28T11:02:51.705Z,9.00
2022-08-28T11:08:04.351Z,11.20
2022-08-28T11:13:12.461Z,9.70
2022-08-28T11:19:00.906Z,9.50
2022-08-28T11:24:12.064Z,9.30
2022-08-28T11:29:46.425Z,10.00
2022-08-28T11:35:04.911Z,8.80
2022-08-28T11:40:21.658Z,9.50
2022-08-28T11:46:13.195Z,10.20
2022-08-28T11:51:41.197Z,10.00
2022-08-28T11:57:03.764Z,9.80
2022-08-28T12:02:43.930Z,8.20
2022-08-28T12:07:53.262Z,8.10
2022-08-28T12:13:02.623Z,10.00
2022-08-28T12:18:36.733Z,9.30
2022-08-28T12:23:46.931Z,9.10
2022-08-28T12:28:56.864Z,8.40
2022-08-28T12:34:10.839Z,8.40
2022-08-28T12:39:20.508Z,8.20
2022-08-28T12:44:29.837Z,7.60
2022-08-28T12:49:39.175Z,8.80
2022-08-28T12:54:47.752Z,7.90
2022-08-28T12:59:56.384Z,8.60
2022-08-28T13:05:07.373Z,7.90
2022-08-28T13:10:23.122Z,7.20
2022-08-28T13:15:58.767Z,7.90
2022-08-28T13:21:32.801Z,7.70
2022-08-28T13:26:40.706Z,8.60
2022-08-28T13:31:56.355Z,8.70
2022-08-28T13:42:17.065Z,8.40
2022-08-28T13:47:24.422Z,8.70
2022-08-28T13:52:31.620Z,8.70
2022-08-28T13:57:38.833Z,8.30
2022-08-28T14:03:03.525Z,8.20
2022-08-28T14:08:10.579Z,8.60
2022-08-28T14:13:19.162Z,8.50
2022-08-28T14:18:28.275Z,9.10
2022-08-28T14:23:35.721Z,7.50
2022-08-28T14:28:42.937Z,8.40
2022-08-28T14:33:50.057Z,8.50
2022-08-28T14:39:01.752Z,8.80
2022-08-28T14:44:11.208Z,10.80
2022-08-28T14:49:20.521Z,8.80
2022-08-28T14:54:30.723Z,9.30
2022-08-28T14:59:37.675Z,8.70
2022-08-28T15:04:44.674Z,10.70
2022-08-28T15:09:51.759Z,9.10
2022-08-28T15:14:58.930Z,7.50
2022-08-28T15:20:08.009Z,7.80
2022-08-28T15:25:14.981Z,7.20
2022-08-28T15:30:22.294Z,8.20
2022-08-28T15:35:29.215Z,6.90
2022-08-28T15:40:54.522Z,7.20
2022-08-28T15:46:01.576Z,6.50
2022-08-28T15:51:08.971Z,7.70
2022-08-28T15:56:16.494Z,9.00
2022-08-28T16:01:24.502Z,8.20
2022-08-28T16:06:31.875Z,7.40
2022-08-28T16:11:41.159Z,8.60
2022-08-28T16:16:50.829Z,7.50
2022-08-28T16:21:57.993Z,9.00
2022-08-28T16:27:06.439Z,9.10
2022-08-28T16:32:18.232Z,10.30
2022-08-28T16:37:37.731Z,8.80
2022-08-28T16:42:51.695Z,9.50
2022-08-28T16:47:59.275Z,12.90
2022-08-28T16:53:07.232Z,12.10
2022-08-28T16:58:17.007Z,9.90
2022-08-28T17:03:27.031Z,11.20
2022-08-28T17:08:34.301Z,11.40
2022-08-28T17:13:41.481Z,9.20
2022-08-28T17:18:52.097Z,9.10
2022-08-28T17:24:00.324Z,9.70
2022-08-28T17:29:07.350Z,10.10
2022-08-28T17:34:14.454Z,10.70
2022-08-28T17:39:22.619Z,8.50
2022-08-28T17:44:29.709Z,10.20
2022-08-28T17:49:36.795Z,8.00
2022-08-28T17:54:44.096Z,9.00
2022-08-28T17:59:51.005Z,8.30
2022-08-28T18:04:58.811Z,7.70
2022-08-28T18:10:11.974Z,7.60
2022-08-28T18:15:19.191Z,8.30
2022-08-28T18:20:27.079Z,9.00
2022-08-28T18:25:48.651Z,8.40
2022-08-28T18:30:58.245Z,9.20
2022-08-28T18:36:15.043Z,8.60
2022-08-28T18:41:30.731Z,8.60
2022-08-28T18:46:50.090Z,9.00
2022-08-28T18:51:57.376Z,6.30
2022-08-28T18:57:05.744Z,8.40
2022-08-28T19:02:13.093Z,7.50
2022-08-28T19:07:20.345Z,7.70
2022-08-28T19:12:28.099Z,7.30
2022-08-28T19:17:36.000Z,7.10
2022-08-28T19:22:43.752Z,7.60
2022-08-28T19:27:51.203Z,7.50
2022-08-28T19:33:03.002Z,8.00
2022-08-28T19:38:10.157Z,9.00
2022-08-28T19:43:17.771Z,8.10
2022-08-28T19:48:25.251Z,7.00
2022-08-28T19:53:32.970Z,7.70
2022-08-28T19:58:41.233Z,7.90
2022-08-28T20:03:48.800Z,8.30
2022-08-28T20:08:56.198Z,7.40
2022-08-28T20:14:05.501Z,7.30
2022-08-28T20:19:13.834Z,7.60
2022-08-28T20:24:24.273Z,8.80
2022-08-28T20:29:31.678Z,8.40
2022-08-28T20:34:43.850Z,8.70
2022-08-28T20:39:52.438Z,7.60
2022-08-28T20:45:00.387Z,8.00
2022-08-28T20:50:09.345Z,12.00
2022-08-28T20:55:17.152Z,9.60
2022-08-28T21:00:25.255Z,11.50
2022-08-28T21:05:32.857Z,11.80
2022-08-28T21:10:42.182Z,11.20
2022-08-28T21:15:49.205Z,12.50
2022-08-28T21:20:56.378Z,11.40
2022-08-28T21:26:03.722Z,10.20
2022-08-28T21:31:13.821Z,11.90
2022-08-28T21:36:22.571Z,11.10
2022-08-28T21:41:29.743Z,12.30
2022-08-28T21:46:37.306Z,11.50
2022-08-28T21:51:44.674Z,8.40
2022-08-28T21:56:58.508Z,15.30
2022-08-28T22:02:06.872Z,14.00
2022-08-28T22:07:14.262Z,15.10
2022-08-28T22:12:21.669Z,14.90
2022-08-28T22:17:29.073Z,16.30
2022-08-28T22:22:54.037Z,17.80
2022-08-28T22:28:01.694Z,15.40
2022-08-28T22:33:11.057Z,18.30
2022-08-28T22:38:18.472Z,15.80
2022-08-28T22:43:26.249Z,20.40
2022-08-28T22:48:33.553Z,21.20
2022-08-28T22:53:41.923Z,19.40
2022-08-28T22:58:48.956Z,18.50
2022-08-28T23:03:56.225Z,20.50
2022-08-28T23:09:03.541Z,20.40
2022-08-28T23:14:10.975Z,18.60
2022-08-28T23:19:18.626Z,17.90
2022-08-28T23:24:25.755Z,17.50
2022-08-28T23:29:33.612Z,16.30
2022-08-28T23:34:40.510Z,14.80
2022-08-28T23:39:47.578Z,11.60
2022-08-28T23:44:54.782Z,12.40
2022-08-28T23:50:01.886Z,10.20
2022-08-28T23:55:12.516Z,11.50
